createdAt,value
2022-09-15T00:02:03.129Z,31.55
2022-09-15T00:04:30.965Z,35.83
2022-09-15T00:06:58.715Z,32.65
2022-09-15T00:09:26.873Z,34.00
2022-09-15T00:11:54.628Z,31.83
2022-09-15T00:14:22.323Z,30.10
2022-09-15T00:16:50.218Z,33.13
2022-09-15T00:19:18.087Z,29.55
2022-09-15T00:21:45.880Z,30.60
2022-09-15T00:24:26.080Z,29.77
2022-09-15T00:26:59.954Z,36.38
2022-09-15T00:29:27.902Z,32.58
2022-09-15T00:31:55.581Z,31.42
2022-09-15T00:34:23.301Z,31.38
2022-09-15T00:36:51.198Z,36.92
2022-09-15T00:39:19.077Z,36.83
2022-09-15T00:41:46.775Z,33.63
2022-09-15T00:44:14.403Z,35.50
2022-09-15T00:46:58.724Z,37.03
2022-09-15T00:49:35.918Z,33.55
2022-09-15T00:52:32.242Z,36.20
2022-09-15T00:55:08.519Z,30.00
2022-09-15T00:57:46.027Z,35.95
2022-09-15T01:00:18.444Z,30.52
2022-09-15T01:02:48.573Z,29.08
2022-09-15T01:05:18.896Z,29.05
2022-09-15T01:07:52.891Z,30.13
2022-09-15T01:10:33.150Z,33.75
2022-09-15T01:13:04.151Z,32.70
2022-09-15T01:15:46.923Z,33.53
2022-09-15T01:18:35.065Z,32.65
2022-09-15T01:21:22.165Z,31.02
2022-09-15T01:24:25.289Z,29.02
2022-09-15T01:27:40.509Z,33.60
2022-09-15T01:30:16.188Z,28.95
2022-09-15T01:33:04.851Z,30.65
2022-09-15T01:36:09.295Z,26.58
2022-09-15T01:39:30.602Z,27.90
2022-09-15T01:42:25.695Z,36.63
2022-09-15T01:44:59.029Z,26.87
2022-09-15T01:47:29.753Z,28.55
2022-09-15T01:50:15.468Z,34.95
2022-09-15T01:52:47.131Z,33.55
2022-09-15T01:55:39.071Z,35.83
2022-09-15T01:58:08.314Z,29.83
2022-09-15T02:00:43.633Z,27.83
2022-09-15T02:03:44.818Z,28.63
2022-09-15T02:06:24.768Z,33.40
2022-09-15T02:09:02.952Z,28.27
2022-09-15T02:11:35.947Z,31.77
2022-09-15T02:14:36.418Z,31.33
2022-09-15T02:17:05.592Z,31.38
2022-09-15T02:19:41.272Z,33.00
2022-09-15T02:22:29.138Z,31.55
2022-09-15T02:25:14.367Z,31.30
2022-09-15T02:27:53.063Z,35.55
2022-09-15T02:30:21.651Z,38.78
2022-09-15T02:32:56.258Z,34.00
2022-09-15T02:35:26.416Z,34.88
2022-09-15T02:37:56.270Z,34.33
2022-09-15T02:40:29.187Z,35.67
2022-09-15T02:43:01.233Z,38.88
2022-09-15T02:45:31.326Z,35.25
2022-09-15T02:47:59.288Z,35.28
2022-09-15T02:50:31.101Z,35.45
2022-09-15T02:53:01.427Z,36.88
2022-09-15T02:56:05.627Z,37.38
2022-09-15T02:58:36.647Z,33.25
2022-09-15T03:01:06.284Z,40.50
2022-09-15T03:03:34.938Z,36.40
2022-09-15T03:06:17.767Z,33.53
2022-09-15T03:08:56.658Z,37.55
2022-09-15T03:11:42.507Z,36.50
2022-09-15T03:14:10.313Z,39.70
2022-09-15T03:16:37.923Z,38.53
2022-09-15T03:19:05.908Z,34.60
2022-09-15T03:21:33.630Z,39.85
2022-09-15T03:24:01.609Z,39.88
2022-09-15T03:26:29.384Z,36.90
2022-09-15T03:28:57.033Z,41.67
2022-09-15T03:31:24.703Z,34.33
2022-09-15T03:33:56.188Z,36.03
2022-09-15T03:36:24.036Z,34.78
2022-09-15T03:38:51.726Z,39.17
2022-09-15T03:41:19.407Z,40.42
2022-09-15T03:43:47.016Z,36.83
2022-09-15T03:46:14.850Z,38.47
2022-09-15T03:48:42.545Z,37.40
2022-09-15T03:51:11.291Z,38.00
2022-09-15T03:53:41.075Z,36.97
2022-09-15T03:56:25.995Z,42.47
2022-09-15T03:58:54.719Z,33.03
2022-09-15T04:01:26.021Z,36.70
2022-09-15T04:04:00.079Z,36.67
2022-09-15T04:06:27.921Z,36.42
2022-09-15T04:09:23.537Z,35.80
2022-09-15T04:11:57.551Z,34.53
2022-09-15T04:14:25.348Z,38.45
2022-09-15T04:16:58.757Z,35.50
2022-09-15T04:19:32.147Z,34.00
2022-09-15T04:21:59.823Z,32.83
2022-09-15T04:24:27.327Z,34.15
2022-09-15T04:26:55.143Z,33.17
2022-09-15T04:29:23.446Z,31.73
2022-09-15T04:32:03.421Z,35.17
2022-09-15T04:34:36.984Z,34.67
2022-09-15T04:37:07.639Z,33.35
2022-09-15T04:39:35.227Z,34.65
2022-09-15T04:42:12.019Z,33.05
2022-09-15T04:44:39.676Z,30.90
2022-09-15T04:47:22.733Z,37.20
2022-09-15T04:49:50.649Z,29.83
2022-09-15T04:52:18.305Z,33.72
2022-09-15T04:54:46.017Z,32.50
2022-09-15T04:57:13.687Z,33.75
2022-09-15T04:59:41.268Z,35.33
2022-09-15T05:02:11.664Z,37.20
2022-09-15T05:04:45.039Z,34.40
2022-09-15T05:07:12.710Z,30.50
2022-09-15T05:09:43.361Z,37.40
2022-09-15T05:12:11.235Z,31.15
2022-09-15T05:14:38.797Z,30.85
2022-09-15T05:17:26.794Z,30.45
2022-09-15T05:20:01.873Z,32.38
2022-09-15T05:22:53.956Z,38.20
2022-09-15T05:25:21.660Z,32.30
2022-09-15T05:27:49.307Z,30.25
2022-09-15T05:30:36.657Z,31.63
2022-09-15T05:33:05.773Z,36.28
2022-09-15T05:35:42.409Z,33.95
2022-09-15T05:38:09.977Z,37.42
2022-09-15T05:40:37.845Z,33.63
2022-09-15T05:43:05.807Z,32.67
2022-09-15T05:45:33.306Z,37.55
2022-09-15T05:48:01.029Z,34.10
2022-09-15T05:50:34.517Z,35.30
2022-09-15T05:53:02.375Z,32.38
2022-09-15T05:55:30.060Z,39.47
2022-09-15T05:57:57.826Z,33.58
2022-09-15T06:00:25.425Z,32.13
2022-09-15T06:02:53.254Z,36.55
2022-09-15T06:05:21.030Z,32.05
2022-09-15T06:07:48.807Z,29.60
2022-09-15T06:10:19.565Z,37.45
2022-09-15T06:12:47.266Z,33.83
2022-09-15T06:15:14.943Z,32.25
2022-09-15T06:17:45.393Z,38.50
2022-09-15T06:20:13.424Z,32.42
2022-09-15T06:22:41.516Z,39.00
2022-09-15T06:25:18.221Z,33.88
2022-09-15T06:27:48.632Z,36.30
2022-09-15T06:30:16.532Z,36.65
2022-09-15T06:32:47.882Z,37.45
2022-09-15T06:35:21.786Z,34.90
2022-09-15T06:37:50.287Z,30.67
2022-09-15T06:40:18.214Z,37.72
2022-09-15T06:42:46.686Z,32.78
2022-09-15T06:45:14.283Z,36.05
2022-09-15T06:47:42.097Z,33.00
2022-09-15T06:50:09.987Z,29.60
2022-09-15T06:52:37.612Z,30.13
2022-09-15T06:55:05.525Z,31.42
2022-09-15T06:57:33.113Z,31.17
2022-09-15T07:00:01.135Z,33.60
2022-09-15T07:02:29.158Z,32.78
2022-09-15T07:04:56.886Z,29.65
2022-09-15T07:07:24.797Z,29.23
2022-09-15T07:09:52.437Z,33.33
2022-09-15T07:12:20.122Z,29.60
2022-09-15T07:14:47.704Z,34.75
2022-09-15T07:17:15.345Z,26.08
2022-09-15T07:19:43.333Z,32.22
2022-09-15T07:22:12.096Z,24.35
2022-09-15T07:24:39.616Z,31.70
2022-09-15T07:27:08.948Z,29.73
2022-09-15T07:29:38.394Z,30.58
2022-09-15T07:32:06.243Z,30.20
2022-09-15T07:34:33.909Z,26.67
2022-09-15T07:37:01.488Z,27.65
2022-09-15T07:39:41.376Z,30.50
2022-09-15T07:42:08.969Z,28.92
2022-09-15T07:44:36.585Z,31.88
2022-09-15T07:47:04.383Z,22.42
2022-09-15T07:49:32.034Z,26.20
2022-09-15T07:52:00.080Z,24.23
2022-09-15T07:55:04.714Z,23.92
2022-09-15T07:57:36.028Z,27.52
2022-09-15T08:00:24.584Z,26.08
2022-09-15T08:02:52.588Z,21.85
2022-09-15T08:05:20.269Z,26.90
2022-09-15T08:07:47.918Z,23.10
2022-09-15T08:10:15.705Z,20.95
2022-09-15T08:12:43.501Z,18.13
2022-09-15T08:15:11.098Z,17.48
2022-09-15T08:17:41.646Z,25.75
2022-09-15T08:20:15.058Z,16.38
2022-09-15T08:22:45.845Z,23.38
2022-09-15T08:25:19.803Z,15.45
2022-09-15T08:27:47.493Z,19.52
2022-09-15T08:30:15.007Z,15.57
2022-09-15T08:32:42.627Z,20.10
2022-09-15T08:35:16.998Z,18.63
2022-09-15T08:37:45.610Z,16.60
2022-09-15T08:40:37.763Z,13.38
2022-09-15T08:43:16.303Z,16.63
2022-09-15T08:45:59.879Z,17.13
2022-09-15T08:48:34.508Z,21.85
2022-09-15T08:51:10.707Z,16.13
2022-09-15T08:53:45.707Z,20.17
2022-09-15T08:56:29.255Z,13.73
2022-09-15T08:59:20.437Z,15.07
2022-09-15T09:01:54.431Z,17.95
2022-09-15T09:04:27.506Z,21.95
2022-09-15T09:07:16.986Z,17.55
2022-09-15T09:10:07.137Z,18.80
2022-09-15T09:13:07.118Z,19.52
2022-09-15T09:15:50.131Z,19.33
2022-09-15T09:18:20.933Z,16.77
2022-09-15T09:21:01.667Z,15.57
2022-09-15T09:23:32.639Z,15.90
2022-09-15T09:28:46.594Z,9.98
2022-09-15T09:31:21.917Z,14.88
2022-09-15T09:34:08.143Z,15.50
2022-09-15T09:36:35.906Z,12.10
2022-09-15T09:39:04.381Z,13.95
2022-09-15T09:41:36.767Z,12.90
2022-09-15T09:44:10.420Z,8.18
2022-09-15T09:46:38.203Z,9.20
2022-09-15T09:49:17.093Z,13.57
2022-09-15T09:51:55.292Z,11.95
2022-09-15T09:54:34.090Z,15.88
2022-09-15T09:57:31.645Z,14.23
2022-09-15T09:59:59.314Z,12.48
2022-09-15T10:02:46.184Z,20.35
2022-09-15T10:05:20.908Z,14.02
2022-09-15T10:07:49.235Z,11.38
2022-09-15T10:10:35.218Z,13.77
2022-09-15T10:13:03.865Z,16.05
2022-09-15T10:15:40.727Z,13.10
2022-09-15T10:18:29.604Z,16.63
2022-09-15T10:20:57.947Z,18.90
2022-09-15T10:23:33.318Z,26.88
2022-09-15T10:26:21.322Z,18.23
2022-09-15T10:29:14.103Z,16.80
2022-09-15T10:31:51.180Z,14.38
2022-09-15T10:34:32.174Z,16.75
2022-09-15T10:37:36.263Z,15.55
2022-09-15T10:40:28.917Z,7.82
2022-09-15T10:43:30.728Z,10.48
2022-09-15T10:46:13.690Z,15.02
2022-09-15T10:48:50.577Z,16.33
2022-09-15T10:51:35.781Z,12.95
2022-09-15T10:54:45.008Z,14.57
2022-09-15T10:57:51.611Z,14.82
2022-09-15T11:00:29.287Z,13.40
2022-09-15T11:03:32.036Z,16.48
2022-09-15T11:06:21.958Z,15.85
2022-09-15T11:08:52.459Z,12.93
2022-09-15T11:11:51.259Z,15.93
2022-09-15T11:14:19.039Z,18.67
2022-09-15T11:16:59.946Z,18.60
2022-09-15T11:22:16.155Z,15.15
2022-09-15T11:25:05.409Z,14.48
2022-09-15T11:28:14.878Z,18.23
2022-09-15T11:30:52.078Z,18.40
2022-09-15T11:33:41.768Z,19.85
2022-09-15T11:36:15.843Z,14.13
2022-09-15T11:38:59.979Z,20.50
2022-09-15T11:42:08.005Z,14.63
2022-09-15T11:44:39.358Z,15.35
2022-09-15T11:47:42.834Z,17.98
2022-09-15T11:50:34.355Z,16.05
2022-09-15T11:53:04.720Z,18.50
2022-09-15T11:55:55.916Z,21.92
2022-09-15T11:58:41.579Z,15.25
2022-09-15T12:01:12.043Z,18.27
2022-09-15T12:03:48.647Z,15.88
2022-09-15T12:06:22.539Z,9.93
2022-09-15T12:09:01.128Z,19.40
2022-09-15T12:11:31.916Z,17.58
2022-09-15T12:14:02.383Z,16.35
2022-09-15T12:16:31.657Z,11.57
2022-09-15T12:19:52.706Z,18.92
2022-09-15T12:22:58.110Z,20.38
2022-09-15T12:29:54.942Z,17.00
2022-09-15T12:32:27.040Z,16.80
2022-09-15T12:35:26.035Z,18.23
2022-09-15T12:38:00.958Z,22.92
2022-09-15T12:40:28.950Z,15.60
2022-09-15T12:43:00.452Z,18.60
2022-09-15T12:45:31.504Z,21.90
2022-09-15T12:48:06.291Z,15.27
2022-09-15T12:50:41.191Z,15.07
2022-09-15T12:53:14.764Z,16.33
2022-09-15T12:55:55.721Z,17.02
2022-09-15T13:04:55.112Z,23.15
2022-09-15T13:07:35.337Z,21.05
2022-09-15T13:10:09.693Z,23.67
2022-09-15T13:12:44.371Z,17.63
2022-09-15T13:15:16.182Z,17.98
2022-09-15T13:17:47.827Z,17.08
2022-09-15T13:20:32.620Z,13.70
2022-09-15T13:23:04.168Z,20.65
2022-09-15T13:25:48.562Z,20.52
2022-09-15T13:28:21.446Z,27.15
2022-09-15T13:31:25.055Z,13.80
2022-09-15T13:40:47.932Z,16.42
2022-09-15T13:43:44.733Z,14.07
2022-09-15T13:46:51.609Z,18.10
2022-09-15T13:49:44.722Z,20.00
2022-09-15T13:52:19.135Z,14.98
2022-09-15T13:55:18.501Z,15.82
2022-09-15T14:01:01.873Z,16.15
2022-09-15T14:04:06.989Z,22.42
2022-09-15T14:06:41.137Z,24.88
2022-09-15T14:09:17.101Z,17.83
2022-09-15T14:12:05.144Z,22.08
2022-09-15T14:14:41.392Z,22.65
2022-09-15T14:17:28.529Z,20.77
2022-09-15T14:20:38.820Z,21.88
2022-09-15T14:23:16.535Z,19.67
2022-09-15T14:25:46.998Z,19.23
2022-09-15T14:28:22.456Z,20.67
2022-09-15T14:30:50.286Z,15.50
2022-09-15T14:33:18.359Z,18.88
2022-09-15T14:35:46.698Z,25.88
2022-09-15T14:38:23.077Z,17.73
2022-09-15T14:40:53.273Z,22.17
2022-09-15T14:43:26.999Z,19.23
2022-09-15T14:46:02.527Z,23.90
2022-09-15T14:48:34.410Z,19.15
2022-09-15T14:51:08.667Z,17.02
2022-09-15T14:53:39.990Z,23.50
2022-09-15T14:56:11.789Z,19.42
2022-09-15T14:58:45.720Z,18.10
2022-09-15T15:01:22.764Z,18.45
2022-09-15T15:04:34.098Z,17.05
2022-09-15T15:07:22.844Z,21.90
2022-09-15T15:09:56.817Z,31.25
2022-09-15T15:12:49.326Z,23.35
2022-09-15T15:15:18.291Z,20.08
2022-09-15T15:17:51.016Z,14.60
2022-09-15T15:20:24.069Z,16.83
2022-09-15T15:23:17.009Z,20.55
2022-09-15T15:25:44.956Z,18.90
2022-09-15T15:28:34.783Z,21.30
2022-09-15T15:34:31.971Z,21.80
2022-09-15T15:37:10.288Z,19.98
2022-09-15T15:39:38.161Z,35.53
2022-09-15T15:42:08.550Z,24.92
2022-09-15T15:44:36.296Z,24.60
2022-09-15T15:47:30.977Z,27.13
2022-09-15T15:50:23.001Z,18.20
2022-09-15T15:52:51.939Z,20.42
2022-09-15T15:55:22.188Z,16.67
2022-09-15T15:57:53.799Z,22.77
2022-09-15T16:00:28.996Z,31.35
2022-09-15T16:02:59.749Z,29.38
2022-09-15T16:05:29.680Z,22.98
2022-09-15T16:12:29.695Z,23.30
2022-09-15T16:15:21.731Z,21.55
2022-09-15T16:17:55.040Z,22.75
2022-09-15T16:20:29.004Z,23.52
2022-09-15T16:22:58.346Z,23.80
2022-09-15T16:25:45.011Z,32.63
2022-09-15T16:28:16.992Z,21.13
2022-09-15T16:30:47.712Z,33.05
2022-09-15T16:33:19.401Z,42.47
2022-09-15T16:35:56.371Z,30.88
2022-09-15T16:38:28.422Z,33.80
2022-09-15T16:41:23.192Z,22.88
2022-09-15T16:43:58.090Z,25.42
2022-09-15T16:46:29.184Z,20.13
2022-09-15T16:51:31.933Z,23.40
2022-09-15T16:54:00.158Z,26.10
2022-09-15T16:56:28.342Z,22.33
2022-09-15T16:59:00.116Z,20.83
2022-09-15T17:01:38.788Z,24.48
2022-09-15T17:04:25.593Z,27.88
2022-09-15T17:10:07.593Z,22.83
2022-09-15T17:12:45.537Z,33.83
2022-09-15T17:15:33.762Z,25.00
2022-09-15T17:18:13.353Z,20.70
2022-09-15T17:21:20.203Z,31.02
2022-09-15T17:24:13.610Z,22.58
2022-09-15T17:26:45.109Z,22.67
2022-09-15T17:29:13.607Z,25.33
2022-09-15T17:31:51.724Z,21.52
2022-09-15T17:34:19.468Z,21.77
2022-09-15T17:36:47.670Z,23.45
2022-09-15T17:39:15.380Z,24.90
2022-09-15T17:41:44.709Z,28.15
2022-09-15T17:44:12.593Z,24.00
2022-09-15T17:46:40.369Z,25.88
2022-09-15T17:49:08.189Z,70.50
2022-09-15T17:51:37.007Z,24.40
2022-09-15T17:54:07.275Z,25.98
2022-09-15T17:56:35.100Z,21.92
2022-09-15T17:59:03.548Z,34.65
2022-09-15T18:01:45.163Z,37.65
2022-09-15T18:04:21.379Z,36.60
2022-09-15T18:06:49.322Z,30.55
2022-09-15T18:09:17.980Z,24.85
2022-09-15T18:14:38.497Z,40.17
2022-09-15T18:17:18.490Z,25.05
2022-09-15T18:20:05.119Z,31.25
2022-09-15T18:22:35.831Z,33.50
2022-09-15T18:25:28.835Z,24.27
2022-09-15T18:28:00.157Z,28.33
2022-09-15T18:30:31.289Z,24.10
2022-09-15T18:35:54.836Z,27.17
2022-09-15T18:38:23.508Z,25.98
2022-09-15T18:40:54.314Z,45.83
2022-09-15T18:43:28.214Z,35.42
2022-09-15T18:46:00.691Z,35.30
2022-09-15T18:48:29.708Z,27.92
2022-09-15T18:50:57.344Z,32.80
2022-09-15T18:53:26.110Z,35.33
2022-09-15T18:55:54.331Z,34.08
2022-09-15T18:58:22.834Z,34.33
2022-09-15T19:01:07.070Z,27.10
2022-09-15T19:03:43.824Z,28.48
2022-09-15T19:06:12.430Z,33.80
2022-09-15T19:08:40.623Z,29.05
2022-09-15T19:11:09.398Z,29.40
2022-09-15T19:13:37.077Z,33.15
2022-09-15T19:16:22.970Z,26.55
2022-09-15T19:18:57.346Z,43.45
2022-09-15T19:21:27.567Z,34.88
2022-09-15T19:23:59.095Z,28.40
2022-09-15T19:26:33.245Z,26.48
2022-09-15T19:29:01.442Z,25.95
2022-09-15T19:31:59.142Z,27.48
2022-09-15T19:35:01.836Z,26.40
2022-09-15T19:38:16.552Z,31.92
2022-09-15T19:41:01.204Z,26.08
2022-09-15T19:43:43.861Z,29.15
2022-09-15T19:46:26.086Z,20.55
2022-09-15T19:48:54.088Z,26.55
2022-09-15T19:51:37.398Z,23.38
2022-09-15T19:54:37.645Z,24.95
2022-09-15T19:57:14.658Z,24.23
2022-09-15T19:59:53.812Z,22.50
2022-09-15T20:03:12.702Z,27.65
2022-09-15T20:05:57.807Z,23.35
2022-09-15T20:08:35.108Z,23.35
2022-09-15T20:11:11.202Z,22.13
2022-09-15T20:13:46.480Z,24.63
2022-09-15T20:17:01.422Z,26.42
2022-09-15T20:20:12.189Z,27.85
2022-09-15T20:22:42.610Z,22.75
2022-09-15T20:25:44.472Z,26.35
2022-09-15T20:28:19.250Z,25.27
2022-09-15T20:31:16.943Z,27.02
2022-09-15T20:33:51.795Z,27.20
2022-09-15T20:36:40.598Z,26.92
2022-09-15T20:39:13.542Z,21.75
2022-09-15T20:41:45.289Z,25.40
2022-09-15T20:44:13.685Z,23.55
2022-09-15T20:46:41.878Z,30.17
2022-09-15T20:49:10.593Z,23.80
2022-09-15T20:51:38.666Z,25.52
2022-09-15T20:54:06.387Z,24.27
2022-09-15T20:56:35.514Z,29.92
2022-09-15T20:59:05.101Z,27.60
2022-09-15T21:01:37.782Z,24.17
2022-09-15T21:04:07.983Z,27.42
2022-09-15T21:06:36.527Z,27.27
2022-09-15T21:09:05.844Z,24.05
2022-09-15T21:11:34.489Z,28.83
2022-09-15T21:14:02.334Z,25.98
2022-09-15T21:16:30.722Z,26.52
2022-09-15T21:18:59.162Z,28.05
2022-09-15T21:21:30.201Z,26.45
2022-09-15T21:24:02.016Z,26.83
2022-09-15T21:26:57.424Z,28.73
2022-09-15T21:29:26.536Z,28.98
2022-09-15T21:31:58.080Z,31.02
2022-09-15T21:34:26.541Z,27.63
2022-09-15T21:36:54.453Z,30.50
2022-09-15T21:39:22.120Z,25.83
2022-09-15T21:41:50.234Z,23.02
2022-09-15T21:44:18.098Z,25.98
2022-09-15T21:46:47.126Z,28.67
2022-09-15T21:49:15.058Z,30.27
2022-09-15T21:51:42.769Z,26.25
2022-09-15T21:54:10.515Z,24.67
2022-09-15T21:56:38.488Z,32.03
2022-09-15T21:59:08.324Z,23.75
2022-09-15T22:01:36.482Z,26.20
2022-09-15T22:04:06.870Z,27.70
2022-09-15T22:06:36.613Z,29.40
2022-09-15T22:09:15.988Z,27.60
2022-09-15T22:11:44.467Z,24.42
2022-09-15T22:14:13.293Z,25.50
2022-09-15T22:16:42.427Z,25.52
2022-09-15T22:19:11.638Z,28.27
2022-09-15T22:21:42.158Z,29.65
2022-09-15T22:24:12.950Z,24.38
2022-09-15T22:26:42.628Z,28.38
2022-09-15T22:29:10.835Z,25.38
2022-09-15T22:31:38.828Z,25.05
2022-09-15T22:34:07.318Z,26.02
2022-09-15T22:36:35.398Z,26.98
2022-09-15T22:39:06.361Z,32.53
2022-09-15T22:44:04.464Z,22.17
2022-09-15T22:46:32.682Z,24.02
2022-09-15T22:49:00.278Z,24.48
2022-09-15T22:51:28.124Z,22.83
2022-09-15T22:53:57.504Z,25.27
2022-09-15T22:56:26.517Z,28.35
2022-09-15T22:58:55.709Z,22.92
2022-09-15T23:01:26.617Z,26.75
2022-09-15T23:03:57.546Z,29.60
2022-09-15T23:06:27.642Z,24.48
2022-09-15T23:08:57.623Z,26.27
2022-09-15T23:11:27.564Z,26.13
2022-09-15T23:13:56.163Z,25.63
2022-09-15T23:16:25.464Z,24.02
2022-09-15T23:18:54.399Z,25.02
2022-09-15T23:21:22.781Z,26.02
2022-09-15T23:23:52.963Z,19.63
2022-09-15T23:26:23.338Z,25.58
2022-09-15T23:28:51.529Z,23.58
2022-09-15T23:31:20.050Z,26.10
2022-09-15T23:33:48.047Z,25.60
2022-09-15T23:36:21.326Z,28.85
2022-09-15T23:38:49.717Z,26.83
2022-09-15T23:41:18.367Z,24.80
2022-09-15T23:43:46.659Z,24.38
2022-09-15T23:46:14.572Z,32.35
2022-09-15T23:48:42.435Z,23.23
2022-09-15T23:51:10.527Z,29.88
2022-09-15T23:53:38.103Z,27.70
2022-09-15T23:56:06.025Z,23.70
2022-09-15T23:58:33.635Z,19.67
